createdAt,value
2023-08-17T00:01:08.801Z,99790.81
2023-08-17T00:03:35.389Z,99774.66
2023-08-17T00:06:01.938Z,99799.66
2023-08-17T00:08:28.312Z,99793.63
2023-08-17T00:10:54.710Z,99795.03
2023-08-17T00:13:21.081Z,99819.28
2023-08-17T00:15:47.492Z,99816.41
2023-08-17T00:18:13.904Z,99824.81
2023-08-17T00:20:40.259Z,99807.09
2023-08-17T00:23:06.633Z,99823.31
2023-08-17T00:25:33.061Z,99816.16
2023-08-17T00:27:59.685Z,99813.44
2023-08-17T00:30:26.035Z,99816.47
2023-08-17T00:32:52.458Z,99819.63
2023-08-17T00:35:19.616Z,99816.13
2023-08-17T00:37:46.017Z,99806.56
2023-08-17T00:40:12.815Z,99814.63
2023-08-17T00:42:39.253Z,99815.00
2023-08-17T00:45:06.201Z,99823.19
2023-08-17T00:47:32.905Z,99830.22
2023-08-17T00:50:00.345Z,99813.88
2023-08-17T00:52:26.948Z,99829.22
2023-08-17T00:54:53.488Z,99805.63
2023-08-17T00:57:20.924Z,99829.03
2023-08-17T00:59:59.443Z,99811.13
2023-08-17T01:02:32.018Z,99827.88
2023-08-17T01:04:59.090Z,99817.81
2023-08-17T01:07:27.093Z,99787.78
2023-08-17T01:09:53.992Z,99823.06
2023-08-17T01:12:37.321Z,99810.66
2023-08-17T01:15:22.087Z,99809.00
2023-08-17T01:18:04.256Z,99809.13
2023-08-17T01:20:32.130Z,99797.25
2023-08-17T01:23:06.131Z,99807.44
2023-08-17T01:25:37.222Z,99809.00
2023-08-17T01:28:05.341Z,99802.94
2023-08-17T01:30:43.179Z,99804.75
2023-08-17T01:33:12.191Z,99790.53
2023-08-17T01:36:06.427Z,99793.88
2023-08-17T01:38:36.730Z,99786.19
2023-08-17T01:41:04.907Z,99784.19
2023-08-17T01:43:31.864Z,99791.88
2023-08-17T01:46:00.096Z,99779.34
2023-08-17T01:48:26.547Z,99782.19
2023-08-17T01:50:52.961Z,99779.50
2023-08-17T01:53:20.749Z,99787.19
2023-08-17T01:55:47.146Z,99785.84
2023-08-17T01:58:13.552Z,99770.31
2023-08-17T02:00:40.192Z,99781.00
2023-08-17T02:03:06.636Z,99779.69
2023-08-17T02:05:33.295Z,99782.19
2023-08-17T02:07:59.675Z,99780.03
2023-08-17T02:10:28.553Z,99779.69
2023-08-17T02:13:01.833Z,99771.16
2023-08-17T02:15:32.338Z,99759.44
2023-08-17T02:18:02.099Z,99778.34
2023-08-17T02:20:29.112Z,99769.78
2023-08-17T02:22:55.530Z,99762.94
2023-08-17T02:25:22.918Z,99764.94
2023-08-17T02:27:51.281Z,99767.63
2023-08-17T02:30:17.674Z,99767.09
2023-08-17T02:32:44.070Z,99768.63
2023-08-17T02:35:10.793Z,99763.41
2023-08-17T02:37:37.223Z,99756.56
2023-08-17T02:40:05.355Z,99741.03
2023-08-17T02:42:31.720Z,99744.19
2023-08-17T02:44:58.117Z,99742.72
2023-08-17T02:47:24.777Z,99754.44
2023-08-17T02:49:51.597Z,99751.91
2023-08-17T02:52:18.020Z,99747.75
2023-08-17T02:54:44.426Z,99752.09
2023-08-17T02:57:10.942Z,99754.78
2023-08-17T02:59:37.371Z,99740.53
2023-08-17T03:02:05.312Z,99741.72
2023-08-17T03:04:31.687Z,99749.91
2023-08-17T03:06:58.105Z,99751.44
2023-08-17T03:09:24.470Z,99740.91
2023-08-17T03:11:50.856Z,99752.59
2023-08-17T03:14:17.400Z,99748.25
2023-08-17T03:16:43.835Z,99743.56
2023-08-17T03:19:12.219Z,99742.56
2023-08-17T03:21:40.885Z,99751.59
2023-08-17T03:24:08.385Z,99742.22
2023-08-17T03:26:34.834Z,99735.91
2023-08-17T03:29:01.500Z,99747.28
2023-08-17T03:31:27.855Z,99758.28
2023-08-17T03:33:56.593Z,99751.44
2023-08-17T03:36:23.548Z,99758.28
2023-08-17T03:38:50.969Z,99749.59
2023-08-17T03:41:19.597Z,99743.56
2023-08-17T03:43:46.499Z,99730.69
2023-08-17T03:46:13.998Z,99747.56
2023-08-17T03:48:40.379Z,99739.25
2023-08-17T03:51:06.873Z,99748.94
2023-08-17T03:53:33.252Z,99746.91
2023-08-17T03:55:59.795Z,99746.63
2023-08-17T03:58:27.829Z,99759.16
2023-08-17T04:00:54.499Z,99758.66
2023-08-17T04:03:26.690Z,99761.31
2023-08-17T04:05:53.136Z,99757.44
2023-08-17T04:08:20.927Z,99744.75
2023-08-17T04:10:47.400Z,99759.78
2023-08-17T04:13:13.756Z,99765.84
2023-08-17T04:15:40.106Z,99780.09
2023-08-17T04:18:06.631Z,99762.69
2023-08-17T04:20:33.068Z,99768.53
2023-08-17T04:22:59.446Z,99761.84
2023-08-17T04:25:26.419Z,99787.44
2023-08-17T04:27:52.837Z,99785.94
2023-08-17T04:30:19.655Z,99794.63
2023-08-17T04:32:55.135Z,99789.78
2023-08-17T04:35:22.113Z,99793.13
2023-08-17T04:37:48.579Z,99790.66
2023-08-17T04:40:15.612Z,99792.66
2023-08-17T04:42:43.141Z,99802.88
2023-08-17T04:45:09.968Z,99797.53
2023-08-17T04:47:40.774Z,99784.81
2023-08-17T04:50:07.738Z,99787.81
2023-08-17T04:52:35.157Z,99798.88
2023-08-17T04:55:02.742Z,99794.34
2023-08-17T04:57:31.554Z,99796.88
2023-08-17T04:59:58.860Z,99780.16
2023-08-17T05:02:25.476Z,99781.16
2023-08-17T05:04:52.753Z,99792.56
2023-08-17T05:07:19.407Z,99793.38
2023-08-17T05:09:46.605Z,99773.47
2023-08-17T05:12:14.314Z,99787.50
2023-08-17T05:14:40.682Z,99786.00
2023-08-17T05:17:07.049Z,99786.19
2023-08-17T05:19:33.453Z,99795.06
2023-08-17T05:22:00.006Z,99792.84
2023-08-17T05:24:26.706Z,99802.56
2023-08-17T05:26:53.115Z,99803.03
2023-08-17T05:29:19.498Z,99806.38
2023-08-17T05:31:46.517Z,99790.16
2023-08-17T05:34:14.124Z,99817.97
2023-08-17T05:36:41.999Z,99816.28
2023-08-17T05:39:08.737Z,99820.63
2023-08-17T05:41:35.234Z,99819.25
2023-08-17T05:44:01.737Z,99818.09
2023-08-17T05:46:28.146Z,99808.06
2023-08-17T05:48:54.588Z,99807.59
2023-08-17T05:51:21.042Z,99813.91
2023-08-17T05:53:47.393Z,99804.03
2023-08-17T05:56:13.793Z,99806.03
2023-08-17T05:58:41.962Z,99811.25
2023-08-17T06:01:09.758Z,99811.25
2023-08-17T06:03:37.115Z,99815.25
2023-08-17T06:06:04.171Z,99815.56
2023-08-17T06:08:30.963Z,99799.34
2023-08-17T06:10:57.335Z,99809.06
2023-08-17T06:13:23.823Z,99825.31
2023-08-17T06:15:50.526Z,99826.13
2023-08-17T06:18:17.124Z,99818.28
2023-08-17T06:20:43.762Z,99810.22
2023-08-17T06:23:10.160Z,99829.16
2023-08-17T06:25:36.547Z,99834.34
2023-08-17T06:28:03.652Z,99816.06
2023-08-17T06:30:30.045Z,99817.59
2023-08-17T06:32:56.475Z,99815.44
2023-08-17T06:35:22.966Z,99836.19
2023-08-17T06:37:49.417Z,99839.00
2023-08-17T06:40:15.761Z,99840.00
2023-08-17T06:42:42.128Z,99839.19
2023-08-17T06:45:08.830Z,99841.88
2023-08-17T06:47:35.302Z,99839.00
2023-08-17T06:50:01.697Z,99824.13
2023-08-17T06:52:28.124Z,99834.66
2023-08-17T06:54:54.549Z,99821.28
2023-08-17T06:57:22.654Z,99830.81
2023-08-17T06:59:49.136Z,99830.44
2023-08-17T07:02:15.597Z,99838.47
2023-08-17T07:04:42.013Z,99829.75
2023-08-17T07:07:08.462Z,99834.91
2023-08-17T07:09:35.384Z,99832.91
2023-08-17T07:12:01.731Z,99822.50
2023-08-17T07:14:29.187Z,99829.41
2023-08-17T07:16:55.556Z,99832.09
2023-08-17T07:19:31.433Z,99840.59
2023-08-17T07:22:09.675Z,99844.09
2023-08-17T07:24:36.146Z,99840.25
2023-08-17T07:27:02.538Z,99856.69
2023-08-17T07:29:28.911Z,99851.50
2023-08-17T07:31:55.476Z,99838.94
2023-08-17T07:34:22.021Z,99827.09
2023-08-17T07:36:48.366Z,99831.75
2023-08-17T07:39:14.745Z,99853.81
2023-08-17T07:41:41.124Z,99845.66
2023-08-17T07:44:07.541Z,99843.94
2023-08-17T07:46:33.897Z,99848.78
2023-08-17T07:49:00.326Z,99846.25
2023-08-17T07:51:26.686Z,99849.78
2023-08-17T07:53:53.045Z,99852.13
2023-08-17T07:56:19.539Z,99827.34
2023-08-17T07:58:45.938Z,99828.88
2023-08-17T08:01:12.441Z,99849.94
2023-08-17T08:03:38.859Z,99837.94
2023-08-17T08:06:05.240Z,99830.88
2023-08-17T08:08:31.626Z,99848.25
2023-08-17T08:10:58.059Z,99851.06
2023-08-17T08:13:24.473Z,99852.56
2023-08-17T08:15:50.894Z,99844.84
2023-08-17T08:18:17.469Z,99842.16
2023-08-17T08:20:43.921Z,99826.31
2023-08-17T08:23:10.313Z,99832.03
2023-08-17T08:25:36.680Z,99842.16
2023-08-17T08:28:03.244Z,99823.28
2023-08-17T08:30:29.644Z,99834.09
2023-08-17T08:32:58.939Z,99839.13
2023-08-17T08:35:25.472Z,99843.75
2023-08-17T08:37:52.407Z,99825.50
2023-08-17T08:40:19.088Z,99839.25
2023-08-17T08:42:45.695Z,99850.44
2023-08-17T08:45:12.196Z,99848.78
2023-08-17T08:47:39.146Z,99837.78
2023-08-17T08:50:06.339Z,99858.16
2023-08-17T08:52:38.871Z,99848.16
2023-08-17T08:55:28.182Z,99857.34
2023-08-17T08:57:55.832Z,99848.16
2023-08-17T09:00:23.326Z,99851.00
2023-08-17T09:02:50.555Z,99866.94
2023-08-17T09:05:17.481Z,99852.56
2023-08-17T09:07:44.527Z,99858.53
2023-08-17T09:10:11.599Z,99857.03
2023-08-17T09:12:41.117Z,99862.25
2023-08-17T09:15:08.877Z,99861.19
2023-08-17T09:17:35.705Z,99857.69
2023-08-17T09:20:02.289Z,99862.88
2023-08-17T09:22:42.739Z,99854.13
2023-08-17T09:25:22.682Z,99836.13
2023-08-17T09:27:49.164Z,99840.13
2023-08-17T09:30:19.531Z,99843.28
2023-08-17T09:32:48.576Z,99843.59
2023-08-17T09:35:15.017Z,99835.69
2023-08-17T09:37:41.411Z,99828.50
2023-08-17T09:40:09.385Z,99851.88
2023-08-17T09:42:36.446Z,99846.81
2023-08-17T09:45:03.484Z,99849.13
2023-08-17T09:47:30.424Z,99845.09
2023-08-17T09:49:57.014Z,99842.22
2023-08-17T09:52:25.259Z,99829.03
2023-08-17T09:54:55.486Z,99847.25
2023-08-17T09:57:23.295Z,99834.34
2023-08-17T09:59:54.791Z,99831.81
2023-08-17T10:02:27.470Z,99829.47
2023-08-17T10:04:58.509Z,99833.84
2023-08-17T10:07:33.296Z,99808.03
2023-08-17T10:10:05.349Z,99828.09
2023-08-17T10:12:39.020Z,99833.47
2023-08-17T10:15:09.237Z,99841.16
2023-08-17T10:17:47.295Z,99841.16
2023-08-17T10:20:15.317Z,99821.25
2023-08-17T10:22:52.743Z,99836.09
2023-08-17T10:25:21.126Z,99795.34
2023-08-17T10:27:49.869Z,99836.09
2023-08-17T10:30:16.390Z,99790.28
2023-08-17T10:32:46.425Z,99841.38
2023-08-17T10:35:14.719Z,99842.78
2023-08-17T10:37:41.760Z,99840.19
2023-08-17T10:40:14.664Z,99834.28
2023-08-17T10:42:41.720Z,99839.94
2023-08-17T10:45:30.382Z,99842.91
2023-08-17T10:48:06.651Z,99845.50
2023-08-17T10:50:34.068Z,99846.47
2023-08-17T10:53:09.429Z,99836.72
2023-08-17T10:55:41.143Z,99843.59
2023-08-17T11:00:43.212Z,99819.03
2023-08-17T11:03:11.467Z,99850.25
2023-08-17T11:05:54.660Z,99858.13
2023-08-17T11:08:29.388Z,99851.09
2023-08-17T11:11:13.708Z,99846.72
2023-08-17T11:13:41.908Z,99848.31
2023-08-17T11:16:12.767Z,99846.47
2023-08-17T11:18:42.381Z,99825.03
2023-08-17T11:21:10.322Z,99825.44
2023-08-17T11:23:38.431Z,99840.53
2023-08-17T11:26:05.951Z,99846.56
2023-08-17T11:28:42.547Z,99837.78
2023-08-17T11:31:13.983Z,99830.09
2023-08-17T11:33:41.136Z,99813.03
2023-08-17T11:36:09.588Z,99823.97
2023-08-17T11:38:39.045Z,99815.69
2023-08-17T11:41:07.504Z,99819.28
2023-08-17T11:43:34.395Z,99829.47
2023-08-17T11:46:02.117Z,99839.19
2023-08-17T11:48:29.434Z,99842.91
2023-08-17T11:50:56.293Z,99846.00
2023-08-17T11:53:23.026Z,99843.47
2023-08-17T11:55:55.599Z,99835.16
2023-08-17T11:58:44.021Z,99839.78
2023-08-17T12:01:12.673Z,99824.78
2023-08-17T12:03:40.898Z,99812.88
2023-08-17T12:06:07.877Z,99831.09
2023-08-17T12:08:35.025Z,99826.69
2023-08-17T12:11:03.037Z,99833.56
2023-08-17T12:13:36.229Z,99847.28
2023-08-17T12:16:03.322Z,99829.19
2023-08-17T12:18:32.699Z,99830.38
2023-08-17T12:20:59.137Z,99830.78
2023-08-17T12:23:25.586Z,99832.88
2023-08-17T12:25:55.981Z,99819.25
2023-08-17T12:28:24.085Z,99813.00
2023-08-17T12:30:59.266Z,99820.59
2023-08-17T12:33:25.678Z,99816.91
2023-08-17T12:35:52.108Z,99785.16
2023-08-17T12:38:18.517Z,99803.66
2023-08-17T12:40:44.963Z,99818.63
2023-08-17T12:43:15.298Z,99811.41
2023-08-17T12:45:42.332Z,99791.88
2023-08-17T12:48:08.749Z,99803.50
2023-08-17T12:50:35.269Z,99803.94
2023-08-17T12:53:01.646Z,99784.78
2023-08-17T12:55:27.998Z,99809.91
2023-08-17T12:57:54.418Z,99808.72
2023-08-17T13:00:20.774Z,99813.09
2023-08-17T13:02:50.202Z,99802.88
2023-08-17T13:05:16.805Z,99783.34
2023-08-17T13:07:43.473Z,99793.75
2023-08-17T13:10:10.000Z,99794.19
2023-08-17T13:12:36.454Z,99784.19
2023-08-17T13:15:02.941Z,99794.34
2023-08-17T13:17:29.383Z,99777.13
2023-08-17T13:19:55.780Z,99790.19
2023-08-17T13:22:22.139Z,99776.28
2023-08-17T13:24:48.644Z,99776.28
2023-08-17T13:27:15.034Z,99785.03
2023-08-17T13:29:41.420Z,99776.91
2023-08-17T13:32:07.918Z,99772.72
2023-08-17T13:34:34.275Z,99767.97
2023-08-17T13:37:00.677Z,99763.59
2023-08-17T13:39:27.573Z,99761.72
2023-08-17T13:41:53.934Z,99766.28
2023-08-17T13:44:20.300Z,99755.91
2023-08-17T13:46:46.676Z,99753.81
2023-08-17T13:49:13.024Z,99750.94
2023-08-17T13:51:39.402Z,99748.88
2023-08-17T13:54:05.787Z,99738.47
2023-08-17T13:56:32.270Z,99745.09
2023-08-17T13:58:58.624Z,99745.09
2023-08-17T14:01:25.520Z,99747.63
2023-08-17T14:03:52.275Z,99737.22
2023-08-17T14:06:18.796Z,99734.28
2023-08-17T14:08:45.305Z,99735.16
2023-08-17T14:11:11.789Z,99742.19
2023-08-17T14:13:39.053Z,99726.22
2023-08-17T14:16:06.015Z,99735.56
2023-08-17T14:18:32.545Z,99733.28
2023-08-17T14:20:58.928Z,99715.63
2023-08-17T14:23:25.334Z,99713.94
2023-08-17T14:25:53.083Z,99709.81
2023-08-17T14:28:19.936Z,99698.16
2023-08-17T14:30:52.632Z,99698.38
2023-08-17T14:33:19.456Z,99705.03
2023-08-17T14:35:45.981Z,99674.91
2023-08-17T14:38:14.278Z,99693.59
2023-08-17T14:40:45.453Z,99692.34
2023-08-17T14:43:14.766Z,99696.66
2023-08-17T14:45:44.703Z,99688.97
2023-08-17T14:48:11.203Z,99686.47
2023-08-17T14:50:39.050Z,99675.44
2023-08-17T14:53:08.539Z,99654.50
2023-08-17T14:55:35.654Z,99663.84
2023-08-17T14:58:03.691Z,99657.00
2023-08-17T15:00:33.493Z,99663.44
2023-08-17T15:03:24.414Z,99667.78
2023-08-17T15:05:51.918Z,99662.41
2023-08-17T15:08:18.541Z,99659.72
2023-08-17T15:10:44.975Z,99634.97
2023-08-17T15:13:11.689Z,99634.97
2023-08-17T15:15:38.317Z,99637.69
2023-08-17T15:18:05.046Z,99606.56
2023-08-17T15:20:31.851Z,99627.13
2023-08-17T15:22:58.462Z,99612.19
2023-08-17T15:25:24.805Z,99630.03
2023-08-17T15:27:51.184Z,99630.22
2023-08-17T15:30:17.805Z,99626.88
2023-08-17T15:32:44.290Z,99636.00
2023-08-17T15:35:14.794Z,99624.81
2023-08-17T15:37:50.284Z,99625.66
2023-08-17T15:40:16.730Z,99621.31
2023-08-17T15:42:43.108Z,99625.03
2023-08-17T15:45:09.773Z,99619.63
2023-08-17T15:47:36.173Z,99625.84
2023-08-17T15:50:02.666Z,99624.19
2023-08-17T15:52:29.020Z,99616.53
2023-08-17T15:54:55.446Z,99594.09
2023-08-17T15:57:22.304Z,99602.59
2023-08-17T15:59:51.086Z,99608.00
2023-08-17T16:02:18.362Z,99610.09
2023-08-17T16:04:44.749Z,99612.56
2023-08-17T16:07:11.221Z,99608.84
2023-08-17T16:09:38.617Z,99614.41
2023-08-17T16:12:05.409Z,99595.13
2023-08-17T16:14:32.069Z,99588.28
2023-08-17T16:16:58.445Z,99608.00
2023-08-17T16:19:24.978Z,99608.00
2023-08-17T16:21:51.629Z,99609.03
2023-08-17T16:24:17.973Z,99620.88
2023-08-17T16:26:44.329Z,99604.88
2023-08-17T16:29:10.667Z,99615.25
2023-08-17T16:31:37.234Z,99614.19
2023-08-17T16:34:03.933Z,99624.56
2023-08-17T16:36:35.875Z,99620.00
2023-08-17T16:39:02.671Z,99629.75
2023-08-17T16:41:29.029Z,99613.78
2023-08-17T16:43:55.869Z,99627.88
2023-08-17T16:46:23.120Z,99628.72
2023-08-17T16:48:49.516Z,99637.84
2023-08-17T16:51:15.895Z,99622.88
2023-08-17T16:53:50.306Z,99634.91
2023-08-17T16:56:17.458Z,99626.38
2023-08-17T16:58:43.856Z,99628.69
2023-08-17T17:01:14.970Z,99633.03
2023-08-17T17:03:42.919Z,99638.66
2023-08-17T17:06:09.621Z,99640.72
2023-08-17T17:08:36.009Z,99641.09
2023-08-17T17:11:02.437Z,99636.09
2023-08-17T17:13:28.841Z,99644.19
2023-08-17T17:15:55.362Z,99629.00
2023-08-17T17:18:21.842Z,99643.59
2023-08-17T17:20:48.338Z,99653.34
2023-08-17T17:23:14.869Z,99646.28
2023-08-17T17:25:41.409Z,99646.50
2023-08-17T17:28:07.909Z,99637.72
2023-08-17T17:30:34.395Z,99639.34
2023-08-17T17:33:00.959Z,99647.22
2023-08-17T17:35:27.330Z,99641.00
2023-08-17T17:37:53.778Z,99653.63
2023-08-17T17:40:20.181Z,99647.22
2023-08-17T17:42:46.566Z,99653.03
2023-08-17T17:45:13.009Z,99640.09
2023-08-17T17:47:39.538Z,99639.50
2023-08-17T17:50:07.776Z,99646.31
2023-08-17T17:52:34.724Z,99653.53
2023-08-17T17:55:01.284Z,99654.56
2023-08-17T17:57:28.067Z,99660.75
2023-08-17T17:59:55.473Z,99653.28
2023-08-17T18:02:25.733Z,99662.78
2023-08-17T18:04:52.850Z,99653.19
2023-08-17T18:07:19.599Z,99666.47
2023-08-17T18:09:46.020Z,99642.78
2023-08-17T18:12:12.520Z,99649.66
2023-08-17T18:14:39.315Z,99634.53
2023-08-17T18:17:05.978Z,99633.25
2023-08-17T18:19:32.374Z,99634.03
2023-08-17T18:21:58.922Z,99633.38
2023-08-17T18:24:25.338Z,99648.06
2023-08-17T18:26:51.800Z,99649.66
2023-08-17T18:29:18.454Z,99639.88
2023-08-17T18:31:44.980Z,99642.56
2023-08-17T18:34:11.908Z,99635.06
2023-08-17T18:36:38.426Z,99642.50
2023-08-17T18:39:05.201Z,99639.13
2023-08-17T18:41:31.721Z,99649.88
2023-08-17T18:43:58.223Z,99644.06
2023-08-17T18:46:24.755Z,99657.72
2023-08-17T18:48:51.447Z,99653.47
2023-08-17T18:51:17.892Z,99664.22
2023-08-17T18:53:45.410Z,99657.78
2023-08-17T18:56:11.788Z,99665.47
2023-08-17T18:58:38.188Z,99664.94
2023-08-17T19:01:04.541Z,99675.50
2023-08-17T19:03:31.424Z,99682.75
2023-08-17T19:05:58.151Z,99676.88
2023-08-17T19:08:24.570Z,99678.63
2023-08-17T19:10:51.021Z,99686.69
2023-08-17T19:13:17.429Z,99684.13
2023-08-17T19:15:45.899Z,99691.44
2023-08-17T19:18:12.410Z,99698.16
2023-08-17T19:20:38.959Z,99694.63
2023-08-17T19:23:05.426Z,99712.88
2023-08-17T19:25:31.960Z,99709.31
2023-08-17T19:27:58.466Z,99720.28
2023-08-17T19:30:24.983Z,99715.66
2023-08-17T19:32:57.331Z,99707.59
2023-08-17T19:35:25.891Z,99720.91
2023-08-17T19:37:58.357Z,99708.63
2023-08-17T19:40:24.812Z,99715.25
2023-08-17T19:42:51.394Z,99730.38
2023-08-17T19:45:18.296Z,99717.50
2023-08-17T19:47:45.571Z,99709.72
2023-08-17T19:50:12.072Z,99726.03
2023-08-17T19:52:38.505Z,99723.25
2023-08-17T19:55:05.800Z,99717.25
2023-08-17T19:57:32.489Z,99716.97
2023-08-17T19:59:59.005Z,99727.53
2023-08-17T20:02:25.761Z,99724.38
2023-08-17T20:04:52.214Z,99732.06
2023-08-17T20:07:18.674Z,99728.09
2023-08-17T20:09:45.079Z,99718.06
2023-08-17T20:12:11.830Z,99716.88
2023-08-17T20:14:39.615Z,99720.50
2023-08-17T20:17:06.039Z,99724.91
2023-08-17T20:19:35.454Z,99715.03
2023-08-17T20:22:01.899Z,99719.19
2023-08-17T20:24:31.488Z,99714.00
2023-08-17T20:26:58.022Z,99721.13
2023-08-17T20:29:24.405Z,99695.84
2023-08-17T20:31:51.166Z,99700.56
2023-08-17T20:34:17.589Z,99701.13
2023-08-17T20:36:44.020Z,99708.81
2023-08-17T20:39:11.551Z,99696.09
2023-08-17T20:41:38.462Z,99711.03
2023-08-17T20:44:05.135Z,99720.78
2023-08-17T20:46:31.734Z,99715.41
2023-08-17T20:48:58.281Z,99705.03
2023-08-17T20:51:25.651Z,99714.34
2023-08-17T20:53:53.352Z,99722.13
2023-08-17T20:56:21.084Z,99717.59
2023-08-17T20:58:47.616Z,99726.28
2023-08-17T21:01:14.169Z,99717.84
2023-08-17T21:03:40.608Z,99727.16
2023-08-17T21:06:07.381Z,99721.03
2023-08-17T21:08:34.621Z,99730.28
2023-08-17T21:11:01.820Z,99707.69
2023-08-17T21:13:28.370Z,99714.50
2023-08-17T21:16:08.391Z,99736.75
2023-08-17T21:18:35.691Z,99732.41
2023-08-17T21:21:02.798Z,99732.75
2023-08-17T21:23:32.210Z,99728.13
2023-08-17T21:25:59.917Z,99737.00
2023-08-17T21:28:26.527Z,99717.91
2023-08-17T21:30:53.096Z,99735.66
2023-08-17T21:33:19.512Z,99718.81
2023-08-17T21:35:45.925Z,99715.97
2023-08-17T21:38:12.437Z,99718.63
2023-08-17T21:40:38.817Z,99716.50
2023-08-17T21:43:05.312Z,99704.66
2023-08-17T21:45:31.714Z,99704.16
2023-08-17T21:47:58.456Z,99710.84
2023-08-17T21:50:24.951Z,99707.13
2023-08-17T21:52:52.122Z,99704.16
2023-08-17T21:55:18.654Z,99705.28
2023-08-17T21:57:45.490Z,99697.78
2023-08-17T22:00:12.385Z,99700.75
2023-08-17T22:02:38.887Z,99699.91
2023-08-17T22:05:05.686Z,99703.78
2023-08-17T22:07:32.639Z,99697.31
2023-08-17T22:09:59.165Z,99713.69
2023-08-17T22:12:25.627Z,99713.03
2023-08-17T22:14:52.577Z,99704.88
2023-08-17T22:17:19.009Z,99707.38
2023-08-17T22:19:45.350Z,99710.25
2023-08-17T22:22:12.725Z,99718.75
2023-08-17T22:24:51.028Z,99713.88
2023-08-17T22:27:18.663Z,99706.34
2023-08-17T22:29:45.085Z,99706.47
2023-08-17T22:32:11.541Z,99696.28
2023-08-17T22:34:37.957Z,99710.72
2023-08-17T22:37:04.396Z,99701.53
2023-08-17T22:39:30.952Z,99702.63
2023-08-17T22:41:57.374Z,99696.91
2023-08-17T22:44:23.800Z,99692.72
2023-08-17T22:46:50.257Z,99689.22
2023-08-17T22:49:16.688Z,99696.28
2023-08-17T22:51:43.050Z,99688.78
2023-08-17T22:54:09.983Z,99689.16
2023-08-17T22:56:36.382Z,99695.00
2023-08-17T22:59:03.208Z,99704.34
2023-08-17T23:01:29.725Z,99697.19
2023-08-17T23:03:56.204Z,99697.84
2023-08-17T23:06:22.656Z,99689.34
2023-08-17T23:08:49.110Z,99686.94
2023-08-17T23:11:16.386Z,99691.47
2023-08-17T23:13:42.937Z,99674.94
2023-08-17T23:16:10.367Z,99688.78
2023-08-17T23:18:36.776Z,99692.78
2023-08-17T23:21:03.535Z,99685.28
2023-08-17T23:23:29.951Z,99684.13
2023-08-17T23:25:56.473Z,99696.19
2023-08-17T23:28:22.932Z,99686.69
2023-08-17T23:30:49.375Z,99693.97
2023-08-17T23:33:15.914Z,99689.50
2023-08-17T23:35:42.555Z,99683.47
2023-08-17T23:38:10.530Z,99683.59
2023-08-17T23:40:36.972Z,99690.69
2023-08-17T23:43:03.487Z,99680.50
2023-08-17T23:45:30.006Z,99666.66
2023-08-17T23:47:56.443Z,99686.09
2023-08-17T23:50:23.021Z,99687.69
2023-08-17T23:52:49.502Z,99677.69
2023-08-17T23:55:16.197Z,99679.38
2023-08-17T23:57:42.761Z,99661.66
